sensor_id;sensor_type;location;lat;lon;timestamp;P1;durP1;ratioP1;P2;durP2;ratioP2
14021;SDS011;7086;48.116;11.580;2022-07-30T00:01:30;0.98;;;0.98;;
14021;SDS011;7086;48.116;11.580;2022-07-30T00:03:58;0.90;;;0.90;;
14021;SDS011;7086;48.116;11.580;2022-07-30T00:06:26;1.08;;;0.90;;
14021;SDS011;7086;48.116;11.580;2022-07-30T00:08:54;1.00;;;0.80;;
14021;SDS011;7086;48.116;11.580;2022-07-30T00:11:22;1.25;;;0.93;;
14021;SDS011;7086;48.116;11.580;2022-07-30T00:13:50;0.75;;;0.75;;
14021;SDS011;7086;48.116;11.580;2022-07-30T00:16:20;1.98;;;1.00;;
14021;SDS011;7086;48.116;11.580;2022-07-30T00:18:48;1.10;;;1.00;;
14021;SDS011;7086;48.116;11.580;2022-07-30T00:21:17;1.60;;;1.00;;
14021;SDS011;7086;48.116;11.580;2022-07-30T00:23:46;1.00;;;1.00;;
14021;SDS011;7086;48.116;11.580;2022-07-30T00:26:14;0.77;;;0.77;;
14021;SDS011;7086;48.116;11.580;2022-07-30T00:28:42;0.98;;;0.98;;
14021;SDS011;7086;48.116;11.580;2022-07-30T00:31:09;3.95;;;1.13;;
14021;SDS011;7086;48.116;11.580;2022-07-30T00:33:39;2.05;;;0.90;;
14021;SDS011;7086;48.116;11.580;2022-07-30T00:36:07;1.95;;;1.05;;
14021;SDS011;7086;48.116;11.580;2022-07-30T00:38:35;1.45;;;0.80;;
14021;SDS011;7086;48.116;11.580;2022-07-30T00:41:03;2.65;;;1.20;;
14021;SDS011;7086;48.116;11.580;2022-07-30T00:43:31;1.05;;;1.05;;
14021;SDS011;7086;48.116;11.580;2022-07-30T00:46:01;1.10;;;1.00;;
14021;SDS011;7086;48.116;11.580;2022-07-30T00:48:29;0.90;;;0.90;;
14021;SDS011;7086;48.116;11.580;2022-07-30T00:50:59;1.13;;;1.13;;
14021;SDS011;7086;48.116;11.580;2022-07-30T00:53:26;1.27;;;0.88;;
14021;SDS011;7086;48.116;11.580;2022-07-30T00:55:54;2.10;;;0.85;;
14021;SDS011;7086;48.116;11.580;2022-07-30T00:58:23;0.80;;;0.80;;
14021;SDS011;7086;48.116;11.580;2022-07-30T01:00:52;0.73;;;0.73;;
14021;SDS011;7086;48.116;11.580;2022-07-30T01:03:19;0.98;;;0.98;;
14021;SDS011;7086;48.116;11.580;2022-07-30T01:05:47;1.33;;;1.17;;
14021;SDS011;7086;48.116;11.580;2022-07-30T01:08:17;0.80;;;0.80;;
14021;SDS011;7086;48.116;11.580;2022-07-30T01:10:44;1.00;;;1.00;;
14021;SDS011;7086;48.116;11.580;2022-07-30T01:13:13;1.65;;;0.77;;
14021;SDS011;7086;48.116;11.580;2022-07-30T01:15:41;0.88;;;0.80;;
14021;SDS011;7086;48.116;11.580;2022-07-30T01:18:13;1.00;;;1.00;;
14021;SDS011;7086;48.116;11.580;2022-07-30T01:20:44;1.02;;;1.02;;
14021;SDS011;7086;48.116;11.580;2022-07-30T01:23:30;1.50;;;0.70;;
14021;SDS011;7086;48.116;11.580;2022-07-30T01:26:04;5.15;;;1.20;;
14021;SDS011;7086;48.116;11.580;2022-07-30T01:28:37;1.02;;;1.00;;
14021;SDS011;7086;48.116;11.580;2022-07-30T01:31:09;1.00;;;1.00;;
14021;SDS011;7086;48.116;11.580;2022-07-30T01:33:41;0.90;;;0.90;;
14021;SDS011;7086;48.116;11.580;2022-07-30T01:36:13;0.82;;;0.82;;
14021;SDS011;7086;48.116;11.580;2022-07-30T01:38:45;1.50;;;1.10;;
14021;SDS011;7086;48.116;11.580;2022-07-30T01:41:19;2.63;;;1.30;;
14021;SDS011;7086;48.116;11.580;2022-07-30T01:43:47;1.35;;;1.25;;
14021;SDS011;7086;48.116;11.580;2022-07-30T01:46:15;0.85;;;0.85;;
14021;SDS011;7086;48.116;11.580;2022-07-30T01:48:45;1.00;;;0.88;;
14021;SDS011;7086;48.116;11.580;2022-07-30T01:51:14;0.90;;;0.90;;
14021;SDS011;7086;48.116;11.580;2022-07-30T01:53:45;1.45;;;0.90;;
14021;SDS011;7086;48.116;11.580;2022-07-30T01:56:15;1.30;;;1.20;;
14021;SDS011;7086;48.116;11.580;2022-07-30T01:58:47;1.13;;;1.10;;
14021;SDS011;7086;48.116;11.580;2022-07-30T02:01:18;1.23;;;1.23;;
14021;SDS011;7086;48.116;11.580;2022-07-30T02:03:45;0.90;;;0.90;;
14021;SDS011;7086;48.116;11.580;2022-07-30T02:06:15;1.17;;;1.08;;
14021;SDS011;7086;48.116;11.580;2022-07-30T02:08:50;1.65;;;0.90;;
14021;SDS011;7086;48.116;11.580;2022-07-30T02:11:23;0.95;;;0.95;;
14021;SDS011;7086;48.116;11.580;2022-07-30T02:14:10;1.52;;;0.90;;
14021;SDS011;7086;48.116;11.580;2022-07-30T02:16:48;1.02;;;1.02;;
14021;SDS011;7086;48.116;11.580;2022-07-30T02:19:20;0.93;;;0.93;;
14021;SDS011;7086;48.116;11.580;2022-07-30T02:21:53;1.52;;;1.08;;
14021;SDS011;7086;48.116;11.580;2022-07-30T02:24:29;1.20;;;1.20;;
14021;SDS011;7086;48.116;11.580;2022-07-30T02:27:02;1.33;;;1.33;;
14021;SDS011;7086;48.116;11.580;2022-07-30T02:29:35;1.10;;;1.00;;
14021;SDS011;7086;48.116;11.580;2022-07-30T02:32:07;1.05;;;1.05;;
14021;SDS011;7086;48.116;11.580;2022-07-30T02:34:39;1.10;;;1.10;;
14021;SDS011;7086;48.116;11.580;2022-07-30T02:37:08;1.30;;;1.15;;
14021;SDS011;7086;48.116;11.580;2022-07-30T02:39:40;1.20;;;1.20;;
14021;SDS011;7086;48.116;11.580;2022-07-30T02:42:11;1.10;;;1.10;;
14021;SDS011;7086;48.116;11.580;2022-07-30T02:44:40;1.30;;;1.27;;
14021;SDS011;7086;48.116;11.580;2022-07-30T02:47:10;1.33;;;1.23;;
14021;SDS011;7086;48.116;11.580;2022-07-30T02:49:40;1.95;;;1.50;;
14021;SDS011;7086;48.116;11.580;2022-07-30T02:52:10;1.83;;;1.40;;
14021;SDS011;7086;48.116;11.580;2022-07-30T02:54:42;1.40;;;1.30;;
14021;SDS011;7086;48.116;11.580;2022-07-30T02:57:13;1.67;;;1.05;;
14021;SDS011;7086;48.116;11.580;2022-07-30T02:59:42;1.45;;;1.35;;
14021;SDS011;7086;48.116;11.580;2022-07-30T03:02:13;1.08;;;1.08;;
14021;SDS011;7086;48.116;11.580;2022-07-30T03:04:43;1.77;;;1.20;;
14021;SDS011;7086;48.116;11.580;2022-07-30T03:07:12;2.97;;;1.20;;
14021;SDS011;7086;48.116;11.580;2022-07-30T03:09:41;1.27;;;1.20;;
14021;SDS011;7086;48.116;11.580;2022-07-30T03:12:13;1.30;;;1.30;;
14021;SDS011;7086;48.116;11.580;2022-07-30T03:14:42;1.45;;;1.35;;
14021;SDS011;7086;48.116;11.580;2022-07-30T03:17:10;1.75;;;1.40;;
14021;SDS011;7086;48.116;11.580;2022-07-30T03:19:42;1.27;;;1.27;;
14021;SDS011;7086;48.116;11.580;2022-07-30T03:22:12;1.30;;;1.30;;
14021;SDS011;7086;48.116;11.580;2022-07-30T03:24:44;1.40;;;1.40;;
14021;SDS011;7086;48.116;11.580;2022-07-30T03:27:32;1.40;;;1.40;;
14021;SDS011;7086;48.116;11.580;2022-07-30T03:30:03;1.63;;;1.52;;
14021;SDS011;7086;48.116;11.580;2022-07-30T03:32:40;2.05;;;1.60;;
14021;SDS011;7086;48.116;11.580;2022-07-30T03:35:10;3.30;;;1.90;;
14021;SDS011;7086;48.116;11.580;2022-07-30T03:37:46;1.45;;;1.35;;
14021;SDS011;7086;48.116;11.580;2022-07-30T03:40:17;1.70;;;1.60;;
14021;SDS011;7086;48.116;11.580;2022-07-30T03:43:03;1.88;;;1.77;;
14021;SDS011;7086;48.116;11.580;2022-07-30T03:45:40;2.97;;;1.70;;
14021;SDS011;7086;48.116;11.580;2022-07-30T03:48:12;1.65;;;1.65;;
14021;SDS011;7086;48.116;11.580;2022-07-30T03:50:42;2.35;;;1.63;;
14021;SDS011;7086;48.116;11.580;2022-07-30T03:53:13;1.77;;;1.70;;
14021;SDS011;7086;48.116;11.580;2022-07-30T03:55:42;1.55;;;1.45;;
14021;SDS011;7086;48.116;11.580;2022-07-30T03:58:18;1.50;;;1.40;;
14021;SDS011;7086;48.116;11.580;2022-07-30T04:00:50;1.73;;;1.63;;
14021;SDS011;7086;48.116;11.580;2022-07-30T04:03:23;1.88;;;1.77;;
14021;SDS011;7086;48.116;11.580;2022-07-30T04:06:04;1.92;;;1.70;;
14021;SDS011;7086;48.116;11.580;2022-07-30T04:08:36;1.98;;;1.50;;
14021;SDS011;7086;48.116;11.580;2022-07-30T04:11:40;2.05;;;1.95;;
14021;SDS011;7086;48.116;11.580;2022-07-30T04:14:22;4.28;;;2.00;;
14021;SDS011;7086;48.116;11.580;2022-07-30T04:17:04;1.50;;;1.40;;
14021;SDS011;7086;48.116;11.580;2022-07-30T04:19:42;2.10;;;2.00;;
14021;SDS011;7086;48.116;11.580;2022-07-30T04:22:30;2.70;;;1.73;;
14021;SDS011;7086;48.116;11.580;2022-07-30T04:25:06;2.17;;;2.03;;
14021;SDS011;7086;48.116;11.580;2022-07-30T04:30:53;1.88;;;1.77;;
14021;SDS011;7086;48.116;11.580;2022-07-30T04:33:37;2.00;;;1.77;;
14021;SDS011;7086;48.116;11.580;2022-07-30T04:36:19;2.35;;;1.83;;
14021;SDS011;7086;48.116;11.580;2022-07-30T04:39:02;1.45;;;1.45;;
14021;SDS011;7086;48.116;11.580;2022-07-30T04:41:33;2.20;;;1.85;;
14021;SDS011;7086;48.116;11.580;2022-07-30T04:44:16;1.48;;;1.35;;
14021;SDS011;7086;48.116;11.580;2022-07-30T04:46:44;1.70;;;1.60;;
14021;SDS011;7086;48.116;11.580;2022-07-30T04:49:27;3.15;;;1.80;;
14021;SDS011;7086;48.116;11.580;2022-07-30T04:52:10;1.65;;;1.55;;
14021;SDS011;7086;48.116;11.580;2022-07-30T04:54:54;2.38;;;2.17;;
14021;SDS011;7086;48.116;11.580;2022-07-30T04:57:28;2.45;;;1.92;;
14021;SDS011;7086;48.116;11.580;2022-07-30T05:03:15;2.08;;;1.88;;
14021;SDS011;7086;48.116;11.580;2022-07-30T05:05:58;1.92;;;1.60;;
14021;SDS011;7086;48.116;11.580;2022-07-30T05:08:28;2.20;;;2.08;;
14021;SDS011;7086;48.116;11.580;2022-07-30T05:10:58;1.88;;;1.77;;
14021;SDS011;7086;48.116;11.580;2022-07-30T05:13:26;1.80;;;1.70;;
14021;SDS011;7086;48.116;11.580;2022-07-30T05:16:00;1.90;;;1.80;;
14021;SDS011;7086;48.116;11.580;2022-07-30T05:18:32;1.50;;;1.50;;
14021;SDS011;7086;48.116;11.580;2022-07-30T05:21:00;2.13;;;1.98;;
14021;SDS011;7086;48.116;11.580;2022-07-30T05:23:28;2.00;;;1.90;;
14021;SDS011;7086;48.116;11.580;2022-07-30T05:25:56;2.20;;;2.00;;
14021;SDS011;7086;48.116;11.580;2022-07-30T05:28:38;1.63;;;1.52;;
14021;SDS011;7086;48.116;11.580;2022-07-30T05:31:19;1.73;;;1.63;;
14021;SDS011;7086;48.116;11.580;2022-07-30T05:33:49;2.72;;;1.38;;
14021;SDS011;7086;48.116;11.580;2022-07-30T05:36:16;1.58;;;1.48;;
14021;SDS011;7086;48.116;11.580;2022-07-30T05:38:48;2.10;;;1.58;;
14021;SDS011;7086;48.116;11.580;2022-07-30T05:41:18;3.00;;;1.55;;
14021;SDS011;7086;48.116;11.580;2022-07-30T05:43:49;1.70;;;1.60;;
14021;SDS011;7086;48.116;11.580;2022-07-30T05:46:30;4.07;;;2.00;;
14021;SDS011;7086;48.116;11.580;2022-07-30T05:49:00;1.70;;;1.50;;
14021;SDS011;7086;48.116;11.580;2022-07-30T05:51:29;1.58;;;1.58;;
14021;SDS011;7086;48.116;11.580;2022-07-30T05:53:57;2.00;;;1.90;;
14021;SDS011;7086;48.116;11.580;2022-07-30T05:56:25;1.65;;;1.55;;
14021;SDS011;7086;48.116;11.580;2022-07-30T05:58:53;1.77;;;1.67;;
14021;SDS011;7086;48.116;11.580;2022-07-30T06:01:37;1.90;;;1.80;;
14021;SDS011;7086;48.116;11.580;2022-07-30T06:04:09;4.82;;;1.88;;
14021;SDS011;7086;48.116;11.580;2022-07-30T06:06:37;3.22;;;1.63;;
14021;SDS011;7086;48.116;11.580;2022-07-30T06:09:19;2.05;;;1.95;;
14021;SDS011;7086;48.116;11.580;2022-07-30T06:12:01;1.70;;;1.70;;
14021;SDS011;7086;48.116;11.580;2022-07-30T06:14:30;1.98;;;1.88;;
14021;SDS011;7086;48.116;11.580;2022-07-30T06:17:04;1.85;;;1.75;;
14021;SDS011;7086;48.116;11.580;2022-07-30T06:19:48;2.05;;;1.85;;
14021;SDS011;7086;48.116;11.580;2022-07-30T06:22:21;2.33;;;2.10;;
14021;SDS011;7086;48.116;11.580;2022-07-30T06:24:51;2.25;;;1.92;;
14021;SDS011;7086;48.116;11.580;2022-07-30T06:27:32;2.47;;;2.25;;
14021;SDS011;7086;48.116;11.580;2022-07-30T06:30:18;2.35;;;2.25;;
14021;SDS011;7086;48.116;11.580;2022-07-30T06:33:00;1.80;;;1.70;;
14021;SDS011;7086;48.116;11.580;2022-07-30T06:35:48;2.58;;;1.95;;
14021;SDS011;7086;48.116;11.580;2022-07-30T06:38:18;2.08;;;1.90;;
14021;SDS011;7086;48.116;11.580;2022-07-30T06:40:59;2.00;;;1.90;;
14021;SDS011;7086;48.116;11.580;2022-07-30T06:43:41;1.50;;;1.50;;
14021;SDS011;7086;48.116;11.580;2022-07-30T06:46:10;2.03;;;1.90;;
14021;SDS011;7086;48.116;11.580;2022-07-30T06:48:53;2.40;;;2.30;;
14021;SDS011;7086;48.116;11.580;2022-07-30T07:08:14;2.50;;;2.30;;
14021;SDS011;7086;48.116;11.580;2022-07-30T07:15:00;2.58;;;2.45;;
14021;SDS011;7086;48.116;11.580;2022-07-30T07:17:31;2.72;;;2.58;;
14021;SDS011;7086;48.116;11.580;2022-07-30T07:20:08;3.03;;;2.83;;
14021;SDS011;7086;48.116;11.580;2022-07-30T07:22:37;3.05;;;2.85;;
14021;SDS011;7086;48.116;11.580;2022-07-30T07:31:19;3.67;;;2.88;;
14021;SDS011;7086;48.116;11.580;2022-07-30T07:33:51;2.55;;;2.10;;
14021;SDS011;7086;48.116;11.580;2022-07-30T07:37:08;2.90;;;2.70;;
14021;SDS011;7086;48.116;11.580;2022-07-30T07:39:51;2.58;;;2.38;;
14021;SDS011;7086;48.116;11.580;2022-07-30T07:42:20;2.75;;;2.45;;
14021;SDS011;7086;48.116;11.580;2022-07-30T07:52:40;3.60;;;3.35;;
14021;SDS011;7086;48.116;11.580;2022-07-30T07:55:10;3.03;;;2.83;;
14021;SDS011;7086;48.116;11.580;2022-07-30T07:57:38;2.63;;;2.42;;
14021;SDS011;7086;48.116;11.580;2022-07-30T08:00:26;3.08;;;2.80;;
14021;SDS011;7086;48.116;11.580;2022-07-30T08:03:02;2.90;;;2.67;;
14021;SDS011;7086;48.116;11.580;2022-07-30T08:05:43;2.85;;;2.65;;
14021;SDS011;7086;48.116;11.580;2022-07-30T08:08:27;4.30;;;2.30;;
14021;SDS011;7086;48.116;11.580;2022-07-30T08:11:01;5.95;;;2.35;;
14021;SDS011;7086;48.116;11.580;2022-07-30T08:13:49;3.80;;;2.20;;
14021;SDS011;7086;48.116;11.580;2022-07-30T08:16:38;2.20;;;2.10;;
14021;SDS011;7086;48.116;11.580;2022-07-30T08:19:23;2.53;;;2.33;;
14021;SDS011;7086;48.116;11.580;2022-07-30T08:22:06;2.83;;;2.45;;
14021;SDS011;7086;48.116;11.580;2022-07-30T08:53:06;3.28;;;1.73;;
14021;SDS011;7086;48.116;11.580;2022-07-30T08:55:37;3.47;;;1.70;;
14021;SDS011;7086;48.116;11.580;2022-07-30T08:58:09;2.05;;;1.80;;
14021;SDS011;7086;48.116;11.580;2022-07-30T09:01:21;1.83;;;1.73;;
14021;SDS011;7086;48.116;11.580;2022-07-30T09:04:10;3.28;;;2.05;;
14021;SDS011;7086;48.116;11.580;2022-07-30T09:06:54;2.63;;;2.00;;
14021;SDS011;7086;48.116;11.580;2022-07-30T09:09:37;1.77;;;1.67;;
14021;SDS011;7086;48.116;11.580;2022-07-30T09:12:32;1.83;;;1.55;;
14021;SDS011;7086;48.116;11.580;2022-07-30T09:15:15;2.17;;;1.65;;
14021;SDS011;7086;48.116;11.580;2022-07-30T09:18:12;2.65;;;1.73;;
14021;SDS011;7086;48.116;11.580;2022-07-30T09:20:59;1.88;;;1.77;;
14021;SDS011;7086;48.116;11.580;2022-07-30T09:23:57;1.60;;;1.50;;
14021;SDS011;7086;48.116;11.580;2022-07-30T09:26:51;2.15;;;2.00;;
14021;SDS011;7086;48.116;11.580;2022-07-30T09:29:36;1.73;;;1.50;;
14021;SDS011;7086;48.116;11.580;2022-07-30T09:32:46;1.75;;;1.38;;
14021;SDS011;7086;48.116;11.580;2022-07-30T09:35:33;1.80;;;1.70;;
14021;SDS011;7086;48.116;11.580;2022-07-30T09:38:19;1.33;;;1.23;;
14021;SDS011;7086;48.116;11.580;2022-07-30T09:47:29;1.45;;;1.40;;
14021;SDS011;7086;48.116;11.580;2022-07-30T09:50:00;1.50;;;1.48;;
14021;SDS011;7086;48.116;11.580;2022-07-30T09:52:32;1.60;;;1.50;;
14021;SDS011;7086;48.116;11.580;2022-07-30T09:55:02;2.38;;;1.50;;
14021;SDS011;7086;48.116;11.580;2022-07-30T09:57:32;1.70;;;1.52;;
14021;SDS011;7086;48.116;11.580;2022-07-30T10:07:15;1.40;;;1.40;;
14021;SDS011;7086;48.116;11.580;2022-07-30T10:10:21;1.42;;;1.33;;
14021;SDS011;7086;48.116;11.580;2022-07-30T10:12:57;1.88;;;1.77;;
14021;SDS011;7086;48.116;11.580;2022-07-30T10:15:29;2.65;;;2.53;;
14021;SDS011;7086;48.116;11.580;2022-07-30T10:18:13;2.85;;;2.47;;
14021;SDS011;7086;48.116;11.580;2022-07-30T10:20:43;2.13;;;2.03;;
14021;SDS011;7086;48.116;11.580;2022-07-30T10:23:13;2.05;;;1.70;;
14021;SDS011;7086;48.116;11.580;2022-07-30T12:21:45;1.40;;;1.30;;
14021;SDS011;7086;48.116;11.580;2022-07-30T12:24:14;2.15;;;1.85;;
14021;SDS011;7086;48.116;11.580;2022-07-30T12:27:03;2.05;;;1.60;;
14021;SDS011;7086;48.116;11.580;2022-07-30T13:39:11;1.00;;;1.00;;
14021;SDS011;7086;48.116;11.580;2022-07-30T13:41:52;1.38;;;1.10;;
14021;SDS011;7086;48.116;11.580;2022-07-30T13:44:27;1.75;;;1.40;;
14021;SDS011;7086;48.116;11.580;2022-07-30T13:46:56;1.15;;;1.00;;
14021;SDS011;7086;48.116;11.580;2022-07-30T13:49:38;1.10;;;1.10;;
14021;SDS011;7086;48.116;11.580;2022-07-30T13:52:13;1.63;;;1.52;;
14021;SDS011;7086;48.116;11.580;2022-07-30T14:02:43;1.75;;;1.50;;
14021;SDS011;7086;48.116;11.580;2022-07-30T14:05:28;2.03;;;1.50;;
14021;SDS011;7086;48.116;11.580;2022-07-30T14:27:58;1.00;;;0.80;;
14021;SDS011;7086;48.116;11.580;2022-07-30T14:30:27;1.55;;;1.45;;
14021;SDS011;7086;48.116;11.580;2022-07-30T14:33:09;1.63;;;1.52;;
14021;SDS011;7086;48.116;11.580;2022-07-30T14:35:51;1.38;;;1.20;;
14021;SDS011;7086;48.116;11.580;2022-07-30T14:38:32;1.00;;;1.00;;
14021;SDS011;7086;48.116;11.580;2022-07-30T14:41:06;2.35;;;1.00;;
14021;SDS011;7086;48.116;11.580;2022-07-30T14:43:34;1.90;;;1.42;;
14021;SDS011;7086;48.116;11.580;2022-07-30T14:46:16;2.20;;;0.93;;
14021;SDS011;7086;48.116;11.580;2022-07-30T14:48:45;0.70;;;0.70;;
14021;SDS011;7086;48.116;11.580;2022-07-30T14:51:27;0.85;;;0.80;;
14021;SDS011;7086;48.116;11.580;2022-07-30T14:53:56;1.75;;;0.82;;
14021;SDS011;7086;48.116;11.580;2022-07-30T14:56:32;2.95;;;1.00;;
14021;SDS011;7086;48.116;11.580;2022-07-30T14:59:14;0.93;;;0.93;;
14021;SDS011;7086;48.116;11.580;2022-07-30T15:01:57;0.90;;;0.90;;
14021;SDS011;7086;48.116;11.580;2022-07-30T15:04:39;1.75;;;0.80;;
14021;SDS011;7086;48.116;11.580;2022-07-30T15:07:11;1.58;;;0.95;;
14021;SDS011;7086;48.116;11.580;2022-07-30T15:09:41;1.08;;;1.08;;
14021;SDS011;7086;48.116;11.580;2022-07-30T15:12:17;1.10;;;0.98;;
14021;SDS011;7086;48.116;11.580;2022-07-30T15:14:45;1.27;;;0.73;;
14021;SDS011;7086;48.116;11.580;2022-07-30T15:17:17;0.60;;;0.60;;
14021;SDS011;7086;48.116;11.580;2022-07-30T15:19:46;0.88;;;0.88;;
14021;SDS011;7086;48.116;11.580;2022-07-30T15:22:15;1.90;;;1.77;;
14021;SDS011;7086;48.116;11.580;2022-07-30T15:24:44;1.10;;;0.90;;
14021;SDS011;7086;48.116;11.580;2022-07-30T15:27:14;0.98;;;0.90;;
14021;SDS011;7086;48.116;11.580;2022-07-30T15:30:08;1.73;;;1.05;;
14021;SDS011;7086;48.116;11.580;2022-07-30T15:32:40;1.00;;;1.00;;
14021;SDS011;7086;48.116;11.580;2022-07-30T15:40:28;1.75;;;1.20;;
14021;SDS011;7086;48.116;11.580;2022-07-30T15:43:12;1.00;;;0.90;;
14021;SDS011;7086;48.116;11.580;2022-07-30T15:45:42;1.35;;;1.20;;
14021;SDS011;7086;48.116;11.580;2022-07-30T15:48:09;0.70;;;0.70;;
14021;SDS011;7086;48.116;11.580;2022-07-30T15:50:38;1.50;;;0.75;;
14021;SDS011;7086;48.116;11.580;2022-07-30T15:53:08;1.95;;;0.82;;
14021;SDS011;7086;48.116;11.580;2022-07-30T15:55:36;0.80;;;0.80;;
14021;SDS011;7086;48.116;11.580;2022-07-30T15:58:12;3.05;;;1.05;;
14021;SDS011;7086;48.116;11.580;2022-07-30T16:00:52;1.25;;;0.90;;
14021;SDS011;7086;48.116;11.580;2022-07-30T16:03:20;0.95;;;0.90;;
14021;SDS011;7086;48.116;11.580;2022-07-30T16:05:53;0.75;;;0.60;;
14021;SDS011;7086;48.116;11.580;2022-07-30T16:08:22;1.20;;;0.80;;
14021;SDS011;7086;48.116;11.580;2022-07-30T16:10:50;1.20;;;0.90;;
14021;SDS011;7086;48.116;11.580;2022-07-30T16:13:31;0.57;;;0.57;;
14021;SDS011;7086;48.116;11.580;2022-07-30T16:19:19;0.88;;;0.88;;
14021;SDS011;7086;48.116;11.580;2022-07-30T16:22:01;0.90;;;0.77;;
14021;SDS011;7086;48.116;11.580;2022-07-30T16:24:43;0.98;;;0.70;;
14021;SDS011;7086;48.116;11.580;2022-07-30T16:27:24;1.95;;;1.42;;
14021;SDS011;7086;48.116;11.580;2022-07-30T16:30:06;1.38;;;1.35;;
14021;SDS011;7086;48.116;11.580;2022-07-30T16:32:36;2.45;;;1.40;;
14021;SDS011;7086;48.116;11.580;2022-07-30T16:35:22;2.90;;;1.10;;
14021;SDS011;7086;48.116;11.580;2022-07-30T16:37:50;0.90;;;0.90;;
14021;SDS011;7086;48.116;11.580;2022-07-30T16:40:22;1.45;;;1.35;;
14021;SDS011;7086;48.116;11.580;2022-07-30T16:42:57;1.13;;;1.02;;
14021;SDS011;7086;48.116;11.580;2022-07-30T16:45:31;1.38;;;0.80;;
14021;SDS011;7086;48.116;11.580;2022-07-30T16:48:13;1.42;;;1.33;;
14021;SDS011;7086;48.116;11.580;2022-07-30T16:50:56;1.70;;;1.60;;
14021;SDS011;7086;48.116;11.580;2022-07-30T16:53:25;1.40;;;1.30;;
14021;SDS011;7086;48.116;11.580;2022-07-30T16:56:07;2.03;;;1.60;;
14021;SDS011;7086;48.116;11.580;2022-07-30T16:58:51;1.40;;;1.30;;
14021;SDS011;7086;48.116;11.580;2022-07-30T17:01:32;2.42;;;1.27;;
14021;SDS011;7086;48.116;11.580;2022-07-30T17:04:00;1.50;;;1.40;;
14021;SDS011;7086;48.116;11.580;2022-07-30T17:06:45;1.67;;;1.48;;
14021;SDS011;7086;48.116;11.580;2022-07-30T17:09:18;1.70;;;1.60;;
14021;SDS011;7086;48.116;11.580;2022-07-30T17:12:00;1.40;;;1.30;;
14021;SDS011;7086;48.116;11.580;2022-07-30T17:14:47;1.52;;;1.50;;
14021;SDS011;7086;48.116;11.580;2022-07-30T17:17:29;1.15;;;1.02;;
14021;SDS011;7086;48.116;11.580;2022-07-30T17:20:12;1.05;;;1.00;;
14021;SDS011;7086;48.116;11.580;2022-07-30T17:23:05;1.33;;;1.23;;
14021;SDS011;7086;48.116;11.580;2022-07-30T17:25:46;1.02;;;1.00;;
14021;SDS011;7086;48.116;11.580;2022-07-30T17:28:32;1.10;;;0.90;;
14021;SDS011;7086;48.116;11.580;2022-07-30T17:31:15;0.80;;;0.80;;
14021;SDS011;7086;48.116;11.580;2022-07-30T17:33:58;1.48;;;1.38;;
14021;SDS011;7086;48.116;11.580;2022-07-30T17:36:43;1.33;;;1.30;;
14021;SDS011;7086;48.116;11.580;2022-07-30T17:46:06;1.45;;;1.10;;
14021;SDS011;7086;48.116;11.580;2022-07-30T17:48:47;3.92;;;1.33;;
14021;SDS011;7086;48.116;11.580;2022-07-30T17:56:36;1.40;;;1.30;;
14021;SDS011;7086;48.116;11.580;2022-07-30T17:59:17;1.63;;;1.23;;
14021;SDS011;7086;48.116;11.580;2022-07-30T18:07:11;2.50;;;1.35;;
14021;SDS011;7086;48.116;11.580;2022-07-30T18:09:40;1.10;;;1.10;;
14021;SDS011;7086;48.116;11.580;2022-07-30T18:12:08;1.48;;;1.38;;
14021;SDS011;7086;48.116;11.580;2022-07-30T18:14:51;1.35;;;1.25;;
14021;SDS011;7086;48.116;11.580;2022-07-30T18:17:44;2.28;;;1.63;;
14021;SDS011;7086;48.116;11.580;2022-07-30T18:23:07;2.70;;;1.58;;
14021;SDS011;7086;48.116;11.580;2022-07-30T18:25:36;1.05;;;1.02;;
14021;SDS011;7086;48.116;11.580;2022-07-30T18:28:18;1.90;;;1.80;;
14021;SDS011;7086;48.116;11.580;2022-07-30T18:30:48;1.50;;;1.40;;
14021;SDS011;7086;48.116;11.580;2022-07-30T18:33:20;2.00;;;1.90;;
14021;SDS011;7086;48.116;11.580;2022-07-30T18:36:05;4.85;;;3.05;;
14021;SDS011;7086;48.116;11.580;2022-07-30T18:38:37;4.15;;;3.75;;
14021;SDS011;7086;48.116;11.580;2022-07-30T18:41:10;2.20;;;2.10;;
14021;SDS011;7086;48.116;11.580;2022-07-30T18:43:47;2.17;;;1.80;;
14021;SDS011;7086;48.116;11.580;2022-07-30T18:47:20;4.00;;;2.25;;
14021;SDS011;7086;48.116;11.580;2022-07-30T18:50:30;3.35;;;1.55;;
14021;SDS011;7086;48.116;11.580;2022-07-30T18:53:20;1.70;;;1.60;;
14021;SDS011;7086;48.116;11.580;2022-07-30T18:56:03;1.77;;;1.45;;
14021;SDS011;7086;48.116;11.580;2022-07-30T18:58:37;2.70;;;2.50;;
14021;SDS011;7086;48.116;11.580;2022-07-30T19:01:12;1.95;;;1.73;;
14021;SDS011;7086;48.116;11.580;2022-07-30T19:03:42;1.80;;;1.50;;
14021;SDS011;7086;48.116;11.580;2022-07-30T19:06:12;1.75;;;1.50;;
14021;SDS011;7086;48.116;11.580;2022-07-30T19:08:59;1.80;;;1.67;;
14021;SDS011;7086;48.116;11.580;2022-07-30T19:11:46;2.15;;;2.00;;
14021;SDS011;7086;48.116;11.580;2022-07-30T19:14:19;1.77;;;1.67;;
14021;SDS011;7086;48.116;11.580;2022-07-30T19:16:49;2.08;;;1.42;;
14021;SDS011;7086;48.116;11.580;2022-07-30T19:19:21;1.88;;;1.70;;
14021;SDS011;7086;48.116;11.580;2022-07-30T19:22:07;2.97;;;2.50;;
14021;SDS011;7086;48.116;11.580;2022-07-30T19:24:48;2.75;;;2.55;;
14021;SDS011;7086;48.116;11.580;2022-07-30T19:27:19;4.53;;;1.80;;
14021;SDS011;7086;48.116;11.580;2022-07-30T19:29:52;3.63;;;3.15;;
14021;SDS011;7086;48.116;11.580;2022-07-30T19:32:35;2.33;;;2.13;;
14021;SDS011;7086;48.116;11.580;2022-07-30T19:35:03;2.22;;;2.10;;
14021;SDS011;7086;48.116;11.580;2022-07-30T19:37:35;3.67;;;1.98;;
14021;SDS011;7086;48.116;11.580;2022-07-30T19:40:05;2.00;;;1.90;;
14021;SDS011;7086;48.116;11.580;2022-07-30T19:43:01;2.38;;;2.17;;
14021;SDS011;7086;48.116;11.580;2022-07-30T19:45:31;3.20;;;2.42;;
14021;SDS011;7086;48.116;11.580;2022-07-30T19:48:09;2.55;;;2.35;;
14021;SDS011;7086;48.116;11.580;2022-07-30T19:50:58;3.30;;;2.55;;
14021;SDS011;7086;48.116;11.580;2022-07-30T19:53:30;2.95;;;2.65;;
14021;SDS011;7086;48.116;11.580;2022-07-30T19:56:01;3.05;;;2.85;;
14021;SDS011;7086;48.116;11.580;2022-07-30T19:58:45;3.22;;;2.55;;
14021;SDS011;7086;48.116;11.580;2022-07-30T20:01:15;2.20;;;2.10;;
14021;SDS011;7086;48.116;11.580;2022-07-30T20:03:52;2.50;;;2.40;;
14021;SDS011;7086;48.116;11.580;2022-07-30T20:06:21;3.58;;;2.22;;
14021;SDS011;7086;48.116;11.580;2022-07-30T20:14:25;2.10;;;2.00;;
14021;SDS011;7086;48.116;11.580;2022-07-30T20:17:00;2.47;;;2.10;;
14021;SDS011;7086;48.116;11.580;2022-07-30T20:19:30;2.38;;;2.28;;
14021;SDS011;7086;48.116;11.580;2022-07-30T20:22:14;1.92;;;1.85;;
14021;SDS011;7086;48.116;11.580;2022-07-30T20:24:59;2.17;;;1.92;;
14021;SDS011;7086;48.116;11.580;2022-07-30T20:27:40;2.75;;;2.40;;
14021;SDS011;7086;48.116;11.580;2022-07-30T20:30:22;4.85;;;2.35;;
14021;SDS011;7086;48.116;11.580;2022-07-30T20:32:59;2.63;;;1.88;;
14021;SDS011;7086;48.116;11.580;2022-07-30T20:35:31;2.72;;;2.47;;
14021;SDS011;7086;48.116;11.580;2022-07-30T20:38:16;2.65;;;2.00;;
14021;SDS011;7086;48.116;11.580;2022-07-30T20:41:08;2.30;;;1.83;;
14021;SDS011;7086;48.116;11.580;2022-07-30T20:43:53;2.38;;;2.17;;
14021;SDS011;7086;48.116;11.580;2022-07-30T20:50:08;1.73;;;1.60;;
14021;SDS011;7086;48.116;11.580;2022-07-30T20:52:52;2.00;;;1.90;;
14021;SDS011;7086;48.116;11.580;2022-07-30T20:55:23;2.20;;;2.10;;
14021;SDS011;7086;48.116;11.580;2022-07-30T20:57:57;1.70;;;1.70;;
14021;SDS011;7086;48.116;11.580;2022-07-30T21:00:39;1.80;;;1.70;;
14021;SDS011;7086;48.116;11.580;2022-07-30T21:03:20;5.35;;;1.88;;
14021;SDS011;7086;48.116;11.580;2022-07-30T21:05:53;2.50;;;2.20;;
14021;SDS011;7086;48.116;11.580;2022-07-30T21:08:20;2.03;;;1.92;;
14021;SDS011;7086;48.116;11.580;2022-07-30T21:11:02;2.00;;;1.90;;
14021;SDS011;7086;48.116;11.580;2022-07-30T21:13:35;1.85;;;1.75;;
14021;SDS011;7086;48.116;11.580;2022-07-30T21:16:05;3.53;;;2.10;;